createdAt,value
2023-03-07T00:02:04.630Z,5.80
2023-03-07T00:04:31.858Z,5.80
2023-03-07T00:06:59.215Z,5.80
2023-03-07T00:09:26.533Z,5.70
2023-03-07T00:11:53.798Z,5.70
2023-03-07T00:14:21.139Z,5.70
2023-03-07T00:16:51.711Z,5.70
2023-03-07T00:19:19.409Z,5.70
2023-03-07T00:21:46.948Z,5.60
2023-03-07T00:24:14.221Z,5.70
2023-03-07T00:26:41.595Z,5.70
2023-03-07T00:29:10.226Z,5.70
2023-03-07T00:31:38.204Z,5.60
2023-03-07T00:34:05.907Z,5.50
2023-03-07T00:36:33.382Z,5.50
2023-03-07T00:39:00.757Z,5.50
2023-03-07T00:41:29.377Z,5.50
2023-03-07T00:43:57.007Z,5.60
2023-03-07T00:46:25.553Z,5.60
2023-03-07T00:48:53.456Z,5.60
2023-03-07T00:51:23.642Z,5.60
2023-03-07T00:53:51.874Z,5.60
2023-03-07T00:56:25.846Z,5.50
2023-03-07T00:58:53.645Z,5.50
2023-03-07T01:01:24.596Z,5.50
2023-03-07T01:03:56.358Z,5.40
2023-03-07T01:06:26.547Z,5.40
2023-03-07T01:08:57.406Z,5.30
2023-03-07T01:11:25.201Z,5.20
2023-03-07T01:13:55.828Z,5.20
2023-03-07T01:16:27.970Z,5.10
2023-03-07T01:18:57.693Z,5.10
2023-03-07T01:21:31.343Z,5.00
2023-03-07T01:24:02.090Z,4.90
2023-03-07T01:26:32.177Z,4.90
2023-03-07T01:29:02.173Z,4.90
2023-03-07T01:31:33.086Z,5.00
2023-03-07T01:34:02.571Z,5.00
2023-03-07T01:36:34.684Z,4.90
2023-03-07T01:39:14.673Z,4.90
2023-03-07T01:42:00.410Z,4.90
2023-03-07T01:44:30.180Z,4.90
2023-03-07T01:47:01.002Z,4.90
2023-03-07T01:49:49.013Z,4.90
2023-03-07T01:52:31.686Z,4.90
2023-03-07T01:55:06.495Z,4.80
2023-03-07T01:57:38.583Z,4.80
2023-03-07T02:00:10.253Z,4.80
2023-03-07T02:02:46.008Z,4.80
2023-03-07T02:05:27.351Z,4.90
2023-03-07T02:07:57.327Z,4.80
2023-03-07T02:10:28.836Z,4.80
2023-03-07T02:12:56.184Z,4.80
2023-03-07T02:15:23.983Z,4.80
2023-03-07T02:17:53.534Z,4.80
2023-03-07T02:20:21.275Z,4.80
2023-03-07T02:22:52.081Z,4.80
2023-03-07T02:25:27.649Z,4.80
2023-03-07T02:27:57.446Z,4.80
2023-03-07T02:30:26.798Z,4.70
2023-03-07T02:32:55.084Z,4.70
2023-03-07T02:35:24.725Z,4.70
2023-03-07T02:38:03.104Z,4.70
2023-03-07T02:40:32.657Z,4.70
2023-03-07T02:43:09.752Z,4.70
2023-03-07T02:45:40.188Z,4.70
2023-03-07T02:48:07.747Z,4.70
2023-03-07T02:50:35.921Z,4.70
2023-03-07T02:53:03.446Z,4.70
2023-03-07T02:55:30.812Z,4.80
2023-03-07T02:58:02.420Z,4.80
2023-03-07T03:00:29.993Z,4.70
2023-03-07T03:02:57.368Z,4.80
2023-03-07T03:05:24.735Z,4.80
2023-03-07T03:07:53.335Z,4.70
2023-03-07T03:10:21.090Z,4.70
2023-03-07T03:12:48.420Z,4.70
2023-03-07T03:15:16.926Z,4.70
2023-03-07T03:17:46.728Z,4.70
2023-03-07T03:20:14.267Z,4.70
2023-03-07T03:22:41.844Z,4.70
2023-03-07T03:25:12.625Z,4.70
2023-03-07T03:27:42.060Z,4.70
2023-03-07T03:30:12.842Z,4.70
2023-03-07T03:32:41.154Z,4.60
2023-03-07T03:35:11.102Z,4.70
2023-03-07T03:37:39.329Z,4.70
2023-03-07T03:40:14.556Z,4.70
2023-03-07T03:42:44.480Z,4.70
2023-03-07T03:45:15.096Z,4.70
2023-03-07T03:47:42.472Z,4.70
2023-03-07T03:50:11.104Z,4.60
2023-03-07T03:52:38.704Z,4.60
2023-03-07T03:55:06.436Z,4.60
2023-03-07T03:57:33.899Z,4.70
2023-03-07T04:00:01.164Z,4.60
2023-03-07T04:02:30.951Z,4.60
2023-03-07T04:04:59.329Z,4.50
2023-03-07T04:07:29.294Z,4.50
2023-03-07T04:09:57.025Z,4.60
2023-03-07T04:12:25.218Z,4.60
2023-03-07T04:14:52.513Z,4.50
2023-03-07T04:17:19.778Z,4.60
2023-03-07T04:19:47.165Z,4.70
2023-03-07T04:22:14.502Z,4.70
2023-03-07T04:24:41.883Z,4.70
2023-03-07T04:27:09.463Z,4.80
2023-03-07T04:29:38.251Z,4.80
2023-03-07T04:32:16.270Z,4.70
2023-03-07T04:34:43.659Z,4.70
2023-03-07T04:37:11.187Z,4.70
2023-03-07T04:39:38.789Z,4.70
2023-03-07T04:42:08.582Z,4.80
2023-03-07T04:44:37.084Z,4.80
2023-03-07T04:47:04.532Z,4.80
2023-03-07T04:49:34.757Z,4.80
2023-03-07T04:52:03.990Z,4.70
2023-03-07T04:54:31.503Z,4.70
2023-03-07T04:56:59.462Z,4.70
2023-03-07T04:59:26.899Z,4.70
2023-03-07T05:01:54.501Z,4.70
2023-03-07T05:04:21.960Z,4.70
2023-03-07T05:06:49.271Z,4.70
2023-03-07T05:09:16.874Z,4.70
2023-03-07T05:11:45.053Z,4.80
2023-03-07T05:14:13.081Z,4.80
2023-03-07T05:16:40.472Z,4.80
2023-03-07T05:19:08.683Z,4.80
2023-03-07T05:21:40.056Z,4.80
2023-03-07T05:24:08.541Z,4.80
2023-03-07T05:26:36.828Z,4.80
2023-03-07T05:29:04.404Z,4.70
2023-03-07T05:31:31.825Z,4.70
2023-03-07T05:33:59.577Z,4.70
2023-03-07T05:36:27.393Z,4.70
2023-03-07T05:38:56.560Z,4.80
2023-03-07T05:41:24.881Z,4.80
2023-03-07T05:43:52.214Z,4.80
2023-03-07T05:46:20.850Z,4.80
2023-03-07T05:48:48.230Z,4.80
2023-03-07T05:51:15.650Z,4.80
2023-03-07T05:53:43.647Z,4.80
2023-03-07T05:56:10.956Z,4.80
2023-03-07T05:58:38.733Z,4.80
2023-03-07T06:01:06.758Z,4.70
2023-03-07T06:03:34.354Z,4.60
2023-03-07T06:06:01.795Z,4.60
2023-03-07T06:08:29.366Z,4.70
2023-03-07T06:10:56.986Z,4.70
2023-03-07T06:13:25.946Z,4.70
2023-03-07T06:15:54.917Z,4.70
2023-03-07T06:18:24.706Z,4.80
2023-03-07T06:21:00.503Z,4.70
2023-03-07T06:23:33.376Z,4.70
2023-03-07T06:26:01.396Z,4.80
2023-03-07T06:28:32.808Z,4.70
2023-03-07T06:31:01.591Z,4.80
2023-03-07T06:33:29.493Z,4.80
2023-03-07T06:35:57.071Z,4.80
2023-03-07T06:38:24.466Z,4.80
2023-03-07T06:40:56.693Z,4.70
2023-03-07T06:43:24.249Z,4.80
2023-03-07T06:45:52.139Z,4.80
2023-03-07T06:48:19.870Z,4.70
2023-03-07T06:50:47.576Z,4.70
2023-03-07T06:53:15.202Z,4.70
2023-03-07T06:55:42.712Z,4.70
2023-03-07T06:58:12.320Z,4.60
2023-03-07T07:00:39.901Z,4.60
2023-03-07T07:03:07.539Z,4.60
2023-03-07T07:05:34.921Z,4.50
2023-03-07T07:08:02.412Z,4.50
2023-03-07T07:10:29.832Z,4.50
2023-03-07T07:12:58.189Z,4.50
2023-03-07T07:15:27.321Z,4.50
2023-03-07T07:17:54.717Z,4.50
2023-03-07T07:20:24.237Z,4.50
2023-03-07T07:22:51.607Z,4.50
2023-03-07T07:25:20.113Z,4.60
2023-03-07T07:27:48.057Z,4.60
2023-03-07T07:30:15.731Z,4.50
2023-03-07T07:32:45.103Z,4.50
2023-03-07T07:35:13.002Z,4.50
2023-03-07T07:37:40.549Z,4.50
2023-03-07T07:40:11.978Z,4.60
2023-03-07T07:42:39.523Z,4.60
2023-03-07T07:45:24.591Z,4.50
2023-03-07T07:47:52.413Z,4.50
2023-03-07T07:50:23.098Z,4.50
2023-03-07T07:52:52.672Z,4.50
2023-03-07T07:55:19.995Z,4.50
2023-03-07T07:57:47.486Z,4.50
2023-03-07T08:00:19.594Z,4.40
2023-03-07T08:02:50.728Z,4.40
2023-03-07T08:05:21.941Z,4.50
2023-03-07T08:07:50.536Z,4.50
2023-03-07T08:10:18.632Z,4.50
2023-03-07T08:12:51.517Z,4.50
2023-03-07T08:15:22.111Z,4.50
2023-03-07T08:17:51.526Z,4.50
2023-03-07T08:20:22.480Z,4.50
2023-03-07T08:22:50.855Z,4.40
2023-03-07T08:25:23.954Z,4.40
2023-03-07T08:27:55.840Z,4.30
2023-03-07T08:30:25.132Z,4.30
2023-03-07T08:32:54.079Z,4.30
2023-03-07T08:35:22.193Z,4.30
2023-03-07T08:37:53.926Z,4.30
2023-03-07T08:40:22.225Z,4.30
2023-03-07T08:42:49.673Z,4.30
2023-03-07T08:45:17.456Z,4.20
2023-03-07T08:47:44.790Z,4.30
2023-03-07T08:50:12.869Z,4.30
2023-03-07T08:52:40.081Z,4.30
2023-03-07T08:55:07.835Z,4.40
2023-03-07T08:57:35.126Z,4.40
2023-03-07T09:00:02.535Z,4.40
2023-03-07T09:02:29.861Z,4.50
2023-03-07T09:04:57.195Z,4.40
2023-03-07T09:07:24.649Z,4.40
2023-03-07T09:09:51.908Z,4.40
2023-03-07T09:12:19.243Z,4.40
2023-03-07T09:14:46.628Z,4.40
2023-03-07T09:17:14.492Z,4.30
2023-03-07T09:19:43.351Z,4.40
2023-03-07T09:22:10.748Z,4.40
2023-03-07T09:24:38.213Z,4.50
2023-03-07T09:27:05.554Z,4.40
2023-03-07T09:29:32.845Z,4.40
2023-03-07T09:32:03.772Z,4.40
2023-03-07T09:34:32.063Z,4.40
2023-03-07T09:36:59.560Z,4.50
2023-03-07T09:39:26.786Z,4.50
2023-03-07T09:41:54.201Z,4.50
2023-03-07T09:44:30.236Z,4.50
2023-03-07T09:48:03.867Z,4.50
2023-03-07T09:50:59.362Z,4.40
2023-03-07T09:53:31.865Z,4.40
2023-03-07T09:56:01.650Z,4.50
2023-03-07T09:58:29.498Z,4.40
2023-03-07T10:01:01.664Z,4.30
2023-03-07T10:03:46.742Z,4.30
2023-03-07T10:06:41.795Z,4.30
2023-03-07T10:09:18.543Z,4.30
2023-03-07T10:12:13.804Z,4.30
2023-03-07T10:14:50.285Z,4.30
2023-03-07T10:17:26.045Z,4.30
2023-03-07T10:19:57.595Z,4.30
2023-03-07T10:22:34.035Z,4.20
2023-03-07T10:25:26.030Z,4.30
2023-03-07T10:28:25.226Z,4.30
2023-03-07T10:30:58.579Z,4.20
2023-03-07T10:33:28.375Z,4.20
2023-03-07T10:36:06.354Z,4.20
2023-03-07T10:38:52.495Z,4.20
2023-03-07T10:41:21.666Z,4.20
2023-03-07T10:43:51.004Z,4.20
2023-03-07T10:46:26.835Z,4.20
2023-03-07T10:49:10.804Z,4.20
2023-03-07T10:52:02.012Z,4.30
2023-03-07T10:54:32.659Z,4.20
2023-03-07T10:57:05.788Z,4.20
2023-03-07T10:59:33.354Z,4.20
2023-03-07T11:02:03.115Z,4.30
2023-03-07T11:04:44.767Z,4.30
2023-03-07T11:07:28.527Z,4.20
2023-03-07T11:09:57.775Z,4.20
2023-03-07T11:12:27.223Z,4.10
2023-03-07T11:15:16.397Z,4.20
2023-03-07T11:17:46.266Z,4.20
2023-03-07T11:20:23.456Z,4.30
2023-03-07T11:23:11.546Z,4.30
2023-03-07T11:25:38.826Z,4.30
2023-03-07T11:28:28.771Z,4.20
2023-03-07T11:31:11.576Z,4.20
2023-03-07T11:34:11.183Z,4.20
2023-03-07T11:36:41.324Z,4.20
2023-03-07T11:39:34.518Z,4.30
2023-03-07T11:42:09.816Z,4.30
2023-03-07T11:44:53.167Z,4.40
2023-03-07T11:47:35.770Z,4.40
2023-03-07T11:50:13.044Z,4.40
2023-03-07T11:52:58.947Z,4.40
2023-03-07T11:55:44.656Z,4.40
2023-03-07T11:58:45.218Z,4.50
2023-03-07T12:01:34.842Z,4.50
2023-03-07T12:04:29.791Z,4.50
2023-03-07T12:07:17.645Z,4.50
2023-03-07T12:10:01.771Z,4.50
2023-03-07T12:12:53.058Z,4.60
2023-03-07T12:15:56.480Z,4.60
2023-03-07T12:18:36.068Z,4.60
2023-03-07T12:21:15.502Z,4.60
2023-03-07T12:23:50.243Z,4.60
2023-03-07T12:26:53.051Z,4.50
2023-03-07T12:29:42.275Z,4.50
2023-03-07T12:32:14.566Z,4.60
2023-03-07T12:34:53.849Z,4.70
2023-03-07T12:37:27.117Z,4.70
2023-03-07T12:40:00.162Z,4.70
2023-03-07T12:42:33.231Z,4.80
2023-03-07T12:45:20.722Z,4.80
2023-03-07T12:47:53.976Z,4.80
2023-03-07T12:50:51.154Z,4.70
2023-03-07T12:53:24.508Z,4.70
2023-03-07T12:55:57.216Z,4.80
2023-03-07T12:58:47.049Z,4.70
2023-03-07T13:01:18.576Z,4.80
2023-03-07T13:04:04.496Z,4.80
2023-03-07T13:06:33.482Z,4.80
2023-03-07T13:09:04.235Z,4.80
2023-03-07T13:11:34.392Z,4.70
2023-03-07T13:14:03.684Z,4.80
2023-03-07T13:16:40.064Z,4.80
2023-03-07T13:19:35.644Z,4.80
2023-03-07T13:22:23.236Z,4.80
2023-03-07T13:25:19.498Z,4.80
2023-03-07T13:28:00.668Z,4.80
2023-03-07T13:30:30.212Z,4.80
2023-03-07T13:32:57.558Z,4.80
2023-03-07T13:35:28.422Z,4.80
2023-03-07T13:37:59.942Z,4.80
2023-03-07T13:40:29.652Z,4.80
2023-03-07T13:42:57.645Z,4.80
2023-03-07T13:45:40.565Z,4.80
2023-03-07T13:48:10.955Z,4.80
2023-03-07T13:50:59.547Z,4.80
2023-03-07T13:53:46.395Z,4.80
2023-03-07T13:56:27.473Z,4.80
2023-03-07T13:59:20.793Z,4.80
2023-03-07T14:02:04.691Z,4.90
2023-03-07T14:04:45.173Z,4.90
2023-03-07T14:07:22.682Z,4.90
2023-03-07T14:09:57.291Z,5.00
2023-03-07T14:12:52.961Z,5.00
2023-03-07T14:15:36.813Z,5.00
2023-03-07T14:18:27.106Z,5.00
2023-03-07T14:20:57.453Z,4.90
2023-03-07T14:23:28.039Z,4.90
2023-03-07T14:26:22.472Z,4.90
2023-03-07T14:29:12.808Z,4.90
2023-03-07T14:31:42.776Z,4.80
2023-03-07T14:34:36.777Z,4.90
2023-03-07T14:37:17.229Z,4.80
2023-03-07T14:40:04.404Z,4.80
2023-03-07T14:42:45.433Z,4.80
2023-03-07T14:45:28.508Z,4.80
2023-03-07T14:47:56.148Z,4.80
2023-03-07T14:50:26.833Z,4.80
2023-03-07T14:53:29.749Z,4.80
2023-03-07T14:55:59.574Z,4.80
2023-03-07T14:58:34.307Z,4.70
2023-03-07T15:01:04.943Z,4.80
2023-03-07T15:03:33.063Z,4.80
2023-03-07T15:06:02.940Z,4.80
2023-03-07T15:08:38.397Z,4.80
2023-03-07T15:11:28.960Z,4.80
2023-03-07T15:14:12.744Z,4.80
2023-03-07T15:16:53.982Z,4.80
2023-03-07T15:19:37.185Z,4.80
2023-03-07T15:22:08.418Z,4.80
2023-03-07T15:24:43.286Z,4.90
2023-03-07T15:27:15.294Z,4.80
2023-03-07T15:29:47.676Z,4.80
2023-03-07T15:32:36.554Z,4.90
2023-03-07T15:35:11.038Z,4.90
2023-03-07T15:37:57.299Z,4.90
2023-03-07T15:40:36.116Z,5.00
2023-03-07T15:43:04.526Z,4.90
2023-03-07T15:45:40.780Z,5.00
2023-03-07T15:48:36.053Z,5.00
2023-03-07T15:51:14.175Z,5.00
2023-03-07T15:53:42.830Z,5.00
2023-03-07T15:56:33.799Z,4.90
2023-03-07T15:59:26.247Z,4.90
2023-03-07T16:01:54.079Z,5.00
2023-03-07T16:04:37.259Z,5.00
2023-03-07T16:07:08.172Z,5.10
2023-03-07T16:10:26.871Z,5.10
2023-03-07T16:12:54.498Z,5.10
2023-03-07T16:15:24.006Z,5.10
2023-03-07T16:17:56.759Z,5.10
2023-03-07T16:20:27.227Z,5.20
2023-03-07T16:22:55.862Z,5.20
2023-03-07T16:25:27.191Z,5.20
2023-03-07T16:27:57.240Z,5.20
2023-03-07T16:30:28.792Z,5.20
2023-03-07T16:32:56.824Z,5.20
2023-03-07T16:35:27.635Z,5.20
2023-03-07T16:37:56.801Z,5.20
2023-03-07T16:40:26.315Z,5.20
2023-03-07T16:42:54.168Z,5.20
2023-03-07T16:45:31.802Z,5.20
2023-03-07T16:48:02.605Z,5.20
2023-03-07T16:50:33.629Z,5.20
2023-03-07T16:53:00.998Z,5.20
2023-03-07T16:55:32.036Z,5.20
2023-03-07T16:58:02.614Z,5.30
2023-03-07T17:00:30.456Z,5.30
2023-03-07T17:03:00.974Z,5.30
2023-03-07T17:05:30.662Z,5.30
2023-03-07T17:08:00.961Z,5.30
2023-03-07T17:10:29.649Z,5.30
2023-03-07T17:12:59.524Z,5.30
2023-03-07T17:15:31.351Z,5.30
2023-03-07T17:18:00.143Z,5.30
2023-03-07T17:20:28.833Z,5.30
2023-03-07T17:22:56.799Z,5.20
2023-03-07T17:25:25.232Z,5.20
2023-03-07T17:28:05.044Z,5.20
2023-03-07T17:30:33.497Z,5.20
2023-03-07T17:33:10.064Z,5.30
2023-03-07T17:35:38.289Z,5.30
2023-03-07T17:38:08.571Z,5.30
2023-03-07T17:40:42.102Z,5.30
2023-03-07T17:43:10.006Z,5.30
2023-03-07T17:45:40.677Z,5.30
2023-03-07T17:48:09.023Z,5.30
2023-03-07T17:50:41.412Z,5.30
2023-03-07T17:53:10.965Z,5.30
2023-03-07T17:56:12.317Z,5.30
2023-03-07T17:58:40.801Z,5.30
2023-03-07T18:01:11.782Z,5.30
2023-03-07T18:03:41.761Z,5.30
2023-03-07T18:06:13.943Z,5.20
2023-03-07T18:08:44.889Z,5.20
2023-03-07T18:11:14.898Z,5.30
2023-03-07T18:13:43.415Z,5.30
2023-03-07T18:16:20.173Z,5.40
2023-03-07T18:18:58.901Z,5.40
2023-03-07T18:21:30.198Z,5.40
2023-03-07T18:23:59.069Z,5.40
2023-03-07T18:26:27.787Z,5.40
2023-03-07T18:28:57.147Z,5.40
2023-03-07T18:31:30.897Z,5.30
2023-03-07T18:33:59.361Z,5.30
2023-03-07T18:36:28.277Z,5.30
2023-03-07T18:38:56.187Z,5.30
2023-03-07T18:41:27.747Z,5.30
2023-03-07T18:43:57.960Z,5.30
2023-03-07T18:46:33.541Z,5.30
2023-03-07T18:49:02.323Z,5.30
2023-03-07T18:51:31.021Z,5.20
2023-03-07T18:54:01.463Z,5.30
2023-03-07T18:56:31.161Z,5.20
2023-03-07T18:59:00.472Z,5.20
2023-03-07T19:01:34.017Z,5.20
2023-03-07T19:04:03.819Z,5.20
2023-03-07T19:06:45.316Z,5.20
2023-03-07T19:09:17.166Z,5.20
2023-03-07T19:11:45.566Z,5.20
2023-03-07T19:14:15.498Z,5.30
2023-03-07T19:16:43.999Z,5.30
2023-03-07T19:19:12.201Z,5.30
2023-03-07T19:21:41.803Z,5.30
2023-03-07T19:24:12.821Z,5.20
2023-03-07T19:26:44.643Z,5.20
2023-03-07T19:29:13.750Z,5.30
2023-03-07T19:31:44.916Z,5.20
2023-03-07T19:34:13.510Z,5.20
2023-03-07T19:36:42.354Z,5.20
2023-03-07T19:39:20.265Z,5.20
2023-03-07T19:41:49.107Z,5.20
2023-03-07T19:44:18.926Z,5.10
2023-03-07T19:46:47.059Z,5.10
2023-03-07T19:49:16.525Z,5.10
2023-03-07T19:51:45.346Z,5.10
2023-03-07T19:54:15.201Z,5.10
2023-03-07T19:56:45.303Z,5.10
2023-03-07T19:59:14.617Z,5.00
2023-03-07T20:01:44.160Z,5.00
2023-03-07T20:04:15.060Z,4.90
2023-03-07T20:06:46.692Z,4.90
2023-03-07T20:09:15.245Z,4.80
2023-03-07T20:11:44.042Z,4.80
2023-03-07T20:14:13.186Z,4.80
2023-03-07T20:16:42.570Z,4.70
2023-03-07T20:19:11.520Z,4.70
2023-03-07T20:21:41.463Z,4.60
2023-03-07T20:24:10.227Z,4.50
2023-03-07T20:26:40.160Z,4.50
2023-03-07T20:29:10.120Z,4.60
2023-03-07T20:31:40.960Z,4.60
2023-03-07T20:34:09.792Z,4.50
2023-03-07T20:36:39.695Z,4.50
2023-03-07T20:39:15.213Z,4.50
2023-03-07T20:41:44.798Z,4.50
2023-03-07T20:44:15.163Z,4.50
2023-03-07T20:46:44.674Z,4.40
2023-03-07T20:49:16.546Z,4.40
2023-03-07T20:51:45.254Z,4.40
2023-03-07T20:54:17.800Z,4.40
2023-03-07T20:56:49.059Z,4.30
2023-03-07T20:59:19.795Z,4.20
2023-03-07T21:01:49.522Z,4.00
2023-03-07T21:04:23.660Z,3.90
2023-03-07T21:06:52.473Z,3.90
2023-03-07T21:09:21.303Z,3.90
2023-03-07T21:11:50.397Z,3.90
2023-03-07T21:14:21.353Z,4.00
2023-03-07T21:16:50.054Z,3.90
2023-03-07T21:19:18.061Z,3.90
2023-03-07T21:21:46.916Z,3.90
2023-03-07T21:24:16.273Z,3.80
2023-03-07T21:26:45.165Z,3.70
2023-03-07T21:29:14.620Z,3.60
2023-03-07T21:31:42.785Z,3.60
2023-03-07T21:34:15.036Z,3.60
2023-03-07T21:36:43.318Z,3.50
2023-03-07T21:39:12.100Z,3.50
2023-03-07T21:41:40.833Z,3.40
2023-03-07T21:44:09.941Z,3.40
2023-03-07T21:46:38.164Z,3.40
2023-03-07T21:49:05.828Z,3.40
2023-03-07T21:51:34.527Z,3.40
2023-03-07T21:54:02.063Z,3.40
2023-03-07T21:56:29.903Z,3.20
2023-03-07T21:58:57.665Z,3.20
2023-03-07T22:01:29.058Z,3.20
2023-03-07T22:03:57.909Z,3.20
2023-03-07T22:06:26.391Z,3.20
2023-03-07T22:08:54.236Z,3.20
2023-03-07T22:11:22.074Z,3.20
2023-03-07T22:13:49.581Z,3.20
2023-03-07T22:16:20.708Z,3.10
2023-03-07T22:18:57.721Z,3.00
2023-03-07T22:21:26.852Z,3.00
2023-03-07T22:24:01.049Z,3.00
2023-03-07T22:26:29.782Z,3.00
2023-03-07T22:28:58.131Z,2.90
2023-03-07T22:31:25.913Z,2.90
2023-03-07T22:33:53.403Z,2.80
2023-03-07T22:36:21.049Z,2.80
2023-03-07T22:38:52.913Z,2.80
2023-03-07T22:41:20.436Z,2.80
2023-03-07T22:43:47.724Z,2.80
2023-03-07T22:46:15.150Z,2.70
2023-03-07T22:48:42.503Z,2.60
2023-03-07T22:51:15.204Z,2.60
2023-03-07T22:53:42.919Z,2.60
2023-03-07T22:56:19.476Z,2.60
2023-03-07T22:58:47.112Z,2.60
2023-03-07T23:01:16.982Z,2.60
2023-03-07T23:03:44.324Z,2.60
2023-03-07T23:06:12.786Z,2.60
2023-03-07T23:08:40.168Z,2.50
2023-03-07T23:11:09.158Z,2.40
2023-03-07T23:13:36.623Z,2.40
2023-03-07T23:16:14.379Z,2.40
2023-03-07T23:18:42.482Z,2.40
2023-03-07T23:21:12.610Z,2.40
2023-03-07T23:23:39.969Z,2.30
2023-03-07T23:26:08.214Z,2.20
2023-03-07T23:28:35.817Z,2.20
2023-03-07T23:31:03.618Z,2.20
2023-03-07T23:33:30.824Z,2.20
2023-03-07T23:36:00.483Z,2.20
2023-03-07T23:38:27.915Z,2.30
2023-03-07T23:40:55.329Z,2.20
2023-03-07T23:43:22.599Z,2.20
2023-03-07T23:45:51.359Z,2.20
2023-03-07T23:48:19.669Z,2.30
2023-03-07T23:50:49.028Z,2.30
2023-03-07T23:53:16.345Z,2.20
2023-03-07T23:55:43.858Z,2.20
2023-03-07T23:58:11.220Z,2.30
